Purvis, Mississippi
Current Conditions -  °F | °C
As of 9:06 AM on Monday 24 Nov 2014 (Local Time) from KHBG Reporting Station
Scattered Clouds Scattered Clouds  
Wind Chill: 67°   Ceiling: Unl
Heat Index: 67°   Visibility: 10mi
Dew Point: 56°   Wind: 13mph
Humidity: 68%   Direction: 300°WNW
Pressure: 29.88"   Gusts: NA
Location:  31.14°N, 89.41°W
Report Text: KHBG 241506Z AUTO 30011KT 10SM FEW021 SCT027 19/13 A2988 RMK AO2 T01940133
Loading
Personal Weather Stations






























Interactive Weather Map New forecast layout! Learn more

10-Day Weather Forecast

Advertisements
Track Severe Weather on mobile